Galvin, WA

8:46 AM PDT on June 30, 2015 (GMT -0700)
GRAND MOUND KF7ZAO | | Change Station
CLOSE
Current Station
Personal Weather Station
Location: Centralia, WA
Elevation: 157 ft
Nearby Weather Stations

Elev 157 ft 46.77 °N, 123.01 °W | Updated 2 seconds ago

Overcast
Overcast
62.8 °F
Feels Like 62.8 °F
N
0.9
Wind Variable Wind from West
Gusts 2.2 mph

Today
High -- | Low -- °F
--% Chance of Precip.
Yesterday
High -- | Low -- °F
Precip. -- in
5:21 AM 9:09 PM
Waxing Gibbous, 97% visible
Pressure 30.13 in
Visibility 4.0 miles
Clouds Overcast 1200 ft
Dew Point 56 °F
Humidity 79%
Rainfall in
Snow Depth Not available.
UV 1 out of 12
Pollen 6.40 out of 12
Air Quality Not available.
Flu Activity Sporadic
METAR KCLS 301535Z AUTO 20004KT 4SM HZ OVC012 17/15 A3013 RMK AO2

More Conditions Fewer Conditions

Pressure 30.13 in
Visibility 4.0 miles
Clouds Overcast 1200 ft
Dew Point 56 °F
Humidity 79%
Rainfall in
Snow Depth Not available.
UV 1 out of 12
Pollen 6.40 out of 12
Air Quality Not available.
Flu Activity Sporadic
METAR KCLS 301535Z AUTO 20004KT 4SM HZ OVC012 17/15 A3013 RMK AO2

More Conditions Fewer Conditions

10-Day Weather Forecast

×

Almanac

Astronomy

Jun. 30, 2015 Rise Set
Actual Time
Civil Twilight
Nautical Twilight
Astronomical Twilight
Moon
Length of Visible Light
Length of Day
Tomorrow will be .
, % of the Moon is Illuminated

Today's Extremes

State Highs State Lows

Community

WunderPhotos

Upload Photos

1,834,027 photos uploaded!

WunderBlogs® & News

Nearby

Air Quality

  Air Quality AQ Index Pollutant
Not available.

Snow Depth

Station Depth Elevation

Earthquake Activity

City Distance Mag. Time & Date
Minimum magnitude displayed is 2.5.

Coastal Water Temperatures

Place Temperature

Stations

Nearby Weather Stations

Station Location Temp. Windchill Dew Point Humidity Wind Precip. Elev Updated Type